createdAt,value
2023-03-02T00:03:19.564Z,20.90
2023-03-02T00:07:24.470Z,18.27
2023-03-02T00:11:27.545Z,21.03
2023-03-02T00:15:28.560Z,21.67
2023-03-02T00:19:29.994Z,20.73
2023-03-02T00:23:31.213Z,19.90
2023-03-02T00:27:32.361Z,20.30
2023-03-02T00:31:34.018Z,20.80
2023-03-02T00:35:39.836Z,21.93
2023-03-02T00:39:41.269Z,19.70
2023-03-02T00:43:42.456Z,21.00
2023-03-02T00:47:43.477Z,19.30
2023-03-02T00:51:44.642Z,21.70
2023-03-02T00:55:55.335Z,18.90
2023-03-02T00:59:56.427Z,19.50
2023-03-02T01:03:57.562Z,19.93
2023-03-02T01:07:58.698Z,19.67
2023-03-02T01:11:59.979Z,18.67
2023-03-02T01:16:04.327Z,18.73
2023-03-02T01:20:08.244Z,18.33
2023-03-02T01:24:10.589Z,20.37
2023-03-02T01:28:12.390Z,21.60
2023-03-02T01:32:13.616Z,21.23
2023-03-02T01:36:14.533Z,19.13
2023-03-02T01:40:15.541Z,18.53
2023-03-02T01:44:36.842Z,19.60
2023-03-02T01:48:47.857Z,17.73
2023-03-02T01:52:49.680Z,19.90
2023-03-02T01:56:54.667Z,19.43
2023-03-02T02:00:56.921Z,18.13
2023-03-02T02:04:57.989Z,19.97
2023-03-02T02:09:00.740Z,18.00
2023-03-02T02:13:02.446Z,19.03
2023-03-02T02:17:03.698Z,18.27
2023-03-02T02:21:05.672Z,19.83
2023-03-02T02:25:10.622Z,18.13
2023-03-02T02:29:17.327Z,18.53
2023-03-02T02:37:25.062Z,18.47
2023-03-02T02:41:29.975Z,17.93
2023-03-02T02:45:31.403Z,18.00
2023-03-02T02:49:38.312Z,18.83
2023-03-02T02:53:57.060Z,17.07
2023-03-02T02:58:01.582Z,19.03
2023-03-02T03:02:02.796Z,18.20
2023-03-02T03:06:07.357Z,17.43
2023-03-02T03:10:12.427Z,17.33
2023-03-02T03:14:16.872Z,17.13
2023-03-02T03:18:23.232Z,17.53
2023-03-02T03:22:24.392Z,20.93
2023-03-02T03:26:25.690Z,17.77
2023-03-02T03:30:26.651Z,16.83
2023-03-02T03:34:29.289Z,19.03
2023-03-02T03:38:30.671Z,18.90
2023-03-02T03:42:32.094Z,18.67
2023-03-02T03:46:34.169Z,17.50
2023-03-02T03:50:35.956Z,19.00
2023-03-02T03:54:37.720Z,17.90
2023-03-02T03:58:38.943Z,18.90
2023-03-02T04:02:40.596Z,17.30
2023-03-02T04:06:42.155Z,18.87
2023-03-02T04:10:43.330Z,18.07
2023-03-02T04:14:45.013Z,17.20
2023-03-02T04:18:45.948Z,20.60
2023-03-02T04:22:50.111Z,17.63
2023-03-02T04:26:51.294Z,17.17
2023-03-02T04:30:53.046Z,16.70
2023-03-02T04:34:54.042Z,15.90
2023-03-02T04:38:55.332Z,18.30
2023-03-02T04:42:56.386Z,19.73
2023-03-02T04:46:57.528Z,20.63
2023-03-02T04:50:58.700Z,17.60
2023-03-02T04:54:59.680Z,18.80
2023-03-02T04:59:00.822Z,18.70
2023-03-02T05:03:03.304Z,18.13
2023-03-02T05:07:04.220Z,17.87
2023-03-02T05:11:07.378Z,18.97
2023-03-02T05:15:09.003Z,17.57
2023-03-02T05:19:11.425Z,17.23
2023-03-02T05:23:19.447Z,17.27
2023-03-02T05:27:20.530Z,15.63
2023-03-02T05:31:25.168Z,17.23
2023-03-02T05:35:26.601Z,17.57
2023-03-02T05:39:27.580Z,16.63
2023-03-02T05:43:29.263Z,16.80
2023-03-02T05:47:30.294Z,15.10
2023-03-02T05:51:31.261Z,18.90
2023-03-02T05:55:36.448Z,16.30
2023-03-02T05:59:37.679Z,16.73
2023-03-02T06:03:38.651Z,16.80
2023-03-02T06:07:40.487Z,15.50
2023-03-02T06:11:42.171Z,16.13
2023-03-02T06:15:43.304Z,17.20
2023-03-02T06:19:44.431Z,15.00
2023-03-02T06:23:45.585Z,17.57
2023-03-02T06:27:49.195Z,17.00
2023-03-02T06:31:50.397Z,18.93
2023-03-02T06:35:51.841Z,19.30
2023-03-02T06:39:52.885Z,17.03
2023-03-02T06:43:54.010Z,16.63
2023-03-02T06:47:55.449Z,14.80
2023-03-02T06:51:56.496Z,14.53
2023-03-02T06:55:57.750Z,12.70
2023-03-02T07:00:02.111Z,15.40
2023-03-02T07:04:03.623Z,14.33
2023-03-02T07:08:05.232Z,15.40
2023-03-02T07:12:06.477Z,14.93
2023-03-02T07:16:12.378Z,15.20
2023-03-02T07:20:16.918Z,15.47
2023-03-02T07:24:18.082Z,16.50
2023-03-02T07:28:21.180Z,14.17
2023-03-02T07:32:22.415Z,14.60
2023-03-02T07:36:23.489Z,13.97
2023-03-02T07:40:24.676Z,15.63
2023-03-02T07:44:27.283Z,17.50
2023-03-02T07:48:28.474Z,15.10
2023-03-02T07:52:30.285Z,15.03
2023-03-02T07:56:31.537Z,15.67
2023-03-02T08:00:33.469Z,15.83
2023-03-02T08:04:35.472Z,15.43
2023-03-02T08:08:36.683Z,17.03
2023-03-02T08:12:37.993Z,13.97
2023-03-02T08:16:39.610Z,15.60
2023-03-02T08:20:40.709Z,14.43
2023-03-02T08:24:42.301Z,16.07
2023-03-02T08:28:43.505Z,13.60
2023-03-02T08:32:44.780Z,13.27
2023-03-02T08:36:46.052Z,14.03
2023-03-02T08:40:47.358Z,13.17
2023-03-02T08:44:48.524Z,14.63
2023-03-02T08:48:50.717Z,15.47
2023-03-02T08:52:51.762Z,14.97
2023-03-02T08:56:53.235Z,14.80
2023-03-02T09:00:54.663Z,16.20
2023-03-02T09:04:56.006Z,16.40
2023-03-02T09:08:57.912Z,15.70
2023-03-02T09:12:59.289Z,14.33
2023-03-02T09:17:00.515Z,15.30
2023-03-02T09:21:02.602Z,18.33
2023-03-02T09:25:05.288Z,16.60
2023-03-02T09:29:06.818Z,16.27
2023-03-02T09:33:07.887Z,15.40
2023-03-02T09:37:09.082Z,17.03
2023-03-02T09:41:23.000Z,16.73
2023-03-02T09:45:45.810Z,15.13
2023-03-02T09:50:11.605Z,15.17
2023-03-02T09:54:20.858Z,16.53
2023-03-02T09:58:25.069Z,15.13
2023-03-02T10:02:39.094Z,14.87
2023-03-02T10:06:40.056Z,14.03
2023-03-02T10:10:47.798Z,16.13
2023-03-02T10:14:52.685Z,15.37
2023-03-02T10:19:15.624Z,13.93
2023-03-02T10:23:32.309Z,15.93
2023-03-02T10:27:39.039Z,16.30
2023-03-02T10:31:40.517Z,15.63
2023-03-02T10:35:45.617Z,14.50
2023-03-02T10:39:46.762Z,13.90
2023-03-02T10:43:51.965Z,14.40
2023-03-02T10:48:09.080Z,14.37
2023-03-02T10:52:13.182Z,10.60
2023-03-02T10:56:20.721Z,13.50
2023-03-02T11:00:26.912Z,14.30
2023-03-02T11:04:30.887Z,12.03
2023-03-02T11:08:32.432Z,14.23
2023-03-02T11:12:36.480Z,14.00
2023-03-02T11:16:37.432Z,12.80
2023-03-02T11:20:45.143Z,13.33
2023-03-02T11:24:49.957Z,13.07
2023-03-02T11:29:00.697Z,14.33
2023-03-02T11:33:05.628Z,12.57
2023-03-02T11:37:16.278Z,13.17
2023-03-02T11:41:29.267Z,12.27
2023-03-02T11:45:45.456Z,12.30
2023-03-02T11:49:56.615Z,13.10
2023-03-02T11:54:07.588Z,14.10
2023-03-02T11:58:12.514Z,13.40
2023-03-02T12:02:14.611Z,10.10
2023-03-02T12:06:19.813Z,13.43
2023-03-02T12:10:26.671Z,12.87
2023-03-02T12:14:31.478Z,12.00
2023-03-02T12:18:45.365Z,10.40
2023-03-02T12:22:46.366Z,14.77
2023-03-02T12:26:47.345Z,12.90
2023-03-02T12:30:58.461Z,12.53
2023-03-02T12:35:15.031Z,13.10
2023-03-02T12:39:31.652Z,11.83
2023-03-02T12:43:34.827Z,11.93
2023-03-02T12:47:38.083Z,15.97
2023-03-02T12:51:55.363Z,11.87
2023-03-02T12:55:57.158Z,10.37
2023-03-02T13:00:01.555Z,8.80
2023-03-02T13:04:04.797Z,11.47
2023-03-02T13:08:09.799Z,10.17
2023-03-02T13:12:14.201Z,10.83
2023-03-02T13:16:30.703Z,12.47
2023-03-02T13:20:32.612Z,13.10
2023-03-02T13:24:52.333Z,10.70
2023-03-02T13:29:04.699Z,12.77
2023-03-02T13:33:15.128Z,11.73
2023-03-02T13:37:19.895Z,11.97
2023-03-02T13:41:23.526Z,10.77
2023-03-02T13:45:27.675Z,11.00
2023-03-02T13:49:34.579Z,12.47
2023-03-02T13:53:37.423Z,11.93
2023-03-02T13:57:40.742Z,12.70
2023-03-02T14:01:43.506Z,12.27
2023-03-02T14:05:44.626Z,12.17
2023-03-02T14:09:46.371Z,11.60
2023-03-02T14:13:51.440Z,11.43
2023-03-02T14:17:52.829Z,12.63
2023-03-02T14:21:58.545Z,13.10
2023-03-02T14:26:00.037Z,13.23
2023-03-02T14:30:01.493Z,11.40
2023-03-02T14:34:02.557Z,11.70
2023-03-02T14:38:04.378Z,12.70
2023-03-02T14:42:07.969Z,11.00
2023-03-02T14:46:09.079Z,9.93
2023-03-02T14:50:11.449Z,12.53
2023-03-02T14:54:16.295Z,11.60
2023-03-02T14:58:20.296Z,14.13
2023-03-02T15:02:26.062Z,12.67
2023-03-02T15:06:31.294Z,11.70
2023-03-02T15:10:32.710Z,10.73
2023-03-02T15:14:33.802Z,10.97
2023-03-02T15:18:35.299Z,12.00
2023-03-02T15:22:36.538Z,10.53
2023-03-02T15:26:38.876Z,9.93
2023-03-02T15:30:41.090Z,8.90
2023-03-02T15:34:42.427Z,9.43
2023-03-02T15:38:43.574Z,9.23
2023-03-02T15:42:44.913Z,8.50
2023-03-02T15:46:46.062Z,8.43
2023-03-02T15:51:02.829Z,8.77
2023-03-02T15:55:04.750Z,7.27
2023-03-02T15:59:06.494Z,7.50
2023-03-02T16:03:08.013Z,9.00
2023-03-02T16:07:09.341Z,9.20
2023-03-02T16:11:12.092Z,7.57
2023-03-02T16:15:13.323Z,7.20
2023-03-02T16:19:19.167Z,5.07
2023-03-02T16:23:20.782Z,6.70
2023-03-02T16:27:21.859Z,6.13
2023-03-02T16:31:25.608Z,5.97
2023-03-02T16:35:27.982Z,6.13
2023-03-02T16:39:29.587Z,6.67
2023-03-02T16:43:32.825Z,6.73
2023-03-02T16:47:33.955Z,5.50
2023-03-02T16:51:35.469Z,5.87
2023-03-02T16:55:36.866Z,6.03
2023-03-02T16:59:38.045Z,6.60
2023-03-02T17:03:39.496Z,6.37
2023-03-02T17:07:40.654Z,6.00
2023-03-02T17:11:42.131Z,6.27
2023-03-02T17:15:43.628Z,5.83
2023-03-02T17:19:45.118Z,5.97
2023-03-02T17:23:47.528Z,5.83
2023-03-02T17:27:48.809Z,6.65
2023-03-02T17:31:50.065Z,6.50
2023-03-02T17:35:51.608Z,7.00
2023-03-02T17:39:53.026Z,7.10
2023-03-02T17:43:54.340Z,5.70
2023-03-02T17:47:57.424Z,6.47
2023-03-02T17:51:58.896Z,6.70
2023-03-02T17:56:00.117Z,6.57
2023-03-02T18:00:02.284Z,6.13
2023-03-02T18:04:04.472Z,11.20
2023-03-02T18:08:05.630Z,8.73
2023-03-02T18:12:07.407Z,8.50
2023-03-02T18:16:08.969Z,7.90
2023-03-02T18:20:11.628Z,7.77
2023-03-02T18:24:13.303Z,6.67
2023-03-02T18:28:15.283Z,8.10
2023-03-02T18:32:16.787Z,21.47
2023-03-02T18:36:18.026Z,10.50
2023-03-02T18:40:19.745Z,7.43
2023-03-02T18:44:21.892Z,7.20
2023-03-02T18:48:24.288Z,7.23
2023-03-02T18:52:26.039Z,9.20
2023-03-02T18:56:27.859Z,8.67
2023-03-02T19:00:29.807Z,8.93
2023-03-02T19:04:31.209Z,8.37
2023-03-02T19:08:35.371Z,7.23
2023-03-02T19:12:36.982Z,8.10
2023-03-02T19:16:38.697Z,6.90
2023-03-02T19:20:40.173Z,7.73
2023-03-02T19:24:43.871Z,7.43
2023-03-02T19:28:45.391Z,6.80
2023-03-02T19:32:47.503Z,7.67
2023-03-02T19:36:48.949Z,7.63
2023-03-02T19:40:50.280Z,8.15
2023-03-02T19:44:52.113Z,8.90
2023-03-02T19:48:53.860Z,7.20
2023-03-02T19:52:56.215Z,8.50
2023-03-02T19:56:57.842Z,7.97
2023-03-02T20:00:59.344Z,8.50
2023-03-02T20:05:01.237Z,8.87
2023-03-02T20:09:06.456Z,9.10
2023-03-02T20:13:08.836Z,8.50
2023-03-02T20:17:10.114Z,8.63
2023-03-02T20:21:11.615Z,8.63
2023-03-02T20:25:14.127Z,8.20
2023-03-02T20:29:15.442Z,10.00
2023-03-02T20:33:18.818Z,8.53
2023-03-02T20:37:22.212Z,9.03
2023-03-02T20:41:23.662Z,10.00
2023-03-02T20:45:24.932Z,9.10
2023-03-02T20:49:28.722Z,8.40
2023-03-02T20:53:30.366Z,9.53
2023-03-02T20:57:32.098Z,10.65
2023-03-02T21:01:33.709Z,9.07
2023-03-02T21:05:39.554Z,8.90
2023-03-02T21:09:41.387Z,9.67
2023-03-02T21:13:47.364Z,9.00
2023-03-02T21:17:50.889Z,11.40
2023-03-02T21:21:54.216Z,14.17
2023-03-02T21:25:56.149Z,11.17
2023-03-02T21:29:57.845Z,11.27
2023-03-02T21:34:00.157Z,11.57
2023-03-02T21:38:04.368Z,11.07
2023-03-02T21:42:05.615Z,12.87
2023-03-02T21:46:06.893Z,11.23
2023-03-02T21:50:14.467Z,13.13
2023-03-02T21:54:15.598Z,13.40
2023-03-02T21:58:16.859Z,15.10
2023-03-02T22:02:17.927Z,13.47
2023-03-02T22:06:26.718Z,14.40
2023-03-02T22:10:36.134Z,16.97
2023-03-02T22:14:37.187Z,16.27
2023-03-02T22:18:38.675Z,14.10
2023-03-02T22:22:39.750Z,15.00
2023-03-02T22:26:44.305Z,13.60
2023-03-02T22:30:45.589Z,16.45
2023-03-02T22:34:48.805Z,17.23
2023-03-02T22:38:50.529Z,14.50
2023-03-02T22:42:55.474Z,16.10
2023-03-02T22:46:57.867Z,15.67
2023-03-02T22:50:59.097Z,16.30
2023-03-02T22:55:01.517Z,20.20
2023-03-02T22:59:07.006Z,19.07
2023-03-02T23:03:20.502Z,18.90
2023-03-02T23:07:22.114Z,18.73
2023-03-02T23:11:23.822Z,21.17
2023-03-02T23:15:25.073Z,19.63
2023-03-02T23:19:28.599Z,19.23
2023-03-02T23:23:30.271Z,20.77
2023-03-02T23:27:31.560Z,21.57
2023-03-02T23:31:33.360Z,18.63
2023-03-02T23:35:34.661Z,18.87
2023-03-02T23:39:35.956Z,20.20
2023-03-02T23:43:37.096Z,19.17
2023-03-02T23:47:38.290Z,19.87
2023-03-02T23:51:40.305Z,20.40
2023-03-02T23:55:45.629Z,21.27
2023-03-02T23:59:46.690Z,20.93
